createdAt,value
2022-12-20T00:02:24.635Z,102827.34
2022-12-20T00:07:27.137Z,102825.56
2022-12-20T00:12:30.777Z,102821.97
2022-12-20T00:17:33.173Z,102819.38
2022-12-20T00:22:35.471Z,102820.38
2022-12-20T00:27:37.674Z,102817.66
2022-12-20T00:32:39.929Z,102808.78
2022-12-20T00:37:42.924Z,102803.41
2022-12-20T00:42:45.114Z,102790.25
2022-12-20T00:47:47.183Z,102794.81
2022-12-20T00:52:49.304Z,102790.34
2022-12-20T00:57:51.416Z,102798.16
2022-12-20T01:02:53.749Z,102802.53
2022-12-20T01:07:56.049Z,102799.03
2022-12-20T01:12:58.309Z,102797.34
2022-12-20T01:18:00.625Z,102791.28
2022-12-20T01:23:03.200Z,102782.53
2022-12-20T01:28:05.454Z,102791.06
2022-12-20T01:33:07.587Z,102785.75
2022-12-20T01:38:09.803Z,102789.50
2022-12-20T01:43:15.416Z,102786.84
2022-12-20T01:48:23.396Z,102781.44
2022-12-20T01:53:25.701Z,102781.38
2022-12-20T01:58:28.007Z,102781.31
2022-12-20T02:03:32.408Z,102769.13
2022-12-20T02:08:34.750Z,102777.09
2022-12-20T02:14:06.537Z,102767.47
2022-12-20T02:19:27.029Z,102758.66
2022-12-20T02:24:57.478Z,102747.16
2022-12-20T02:30:20.540Z,102744.50
2022-12-20T02:35:26.891Z,102742.66
2022-12-20T02:40:35.513Z,102737.28
2022-12-20T02:45:37.967Z,102732.81
2022-12-20T02:50:54.309Z,102734.69
2022-12-20T02:56:09.661Z,102723.34
2022-12-20T03:01:23.333Z,102730.31
2022-12-20T03:06:26.046Z,102727.72
2022-12-20T03:11:28.568Z,102727.66
2022-12-20T03:16:31.705Z,102716.13
2022-12-20T03:21:34.062Z,102705.56
2022-12-20T03:26:36.756Z,102709.91
2022-12-20T03:31:39.470Z,102709.09
2022-12-20T03:36:41.705Z,102708.22
2022-12-20T03:41:43.955Z,102709.03
2022-12-20T03:46:48.650Z,102696.63
2022-12-20T03:51:51.446Z,102692.09
2022-12-20T03:56:53.850Z,102686.94
2022-12-20T04:01:56.876Z,102691.44
2022-12-20T04:07:00.611Z,102692.31
2022-12-20T04:12:03.487Z,102688.00
2022-12-20T04:17:07.218Z,102688.78
2022-12-20T04:22:10.261Z,102673.69
2022-12-20T04:27:27.696Z,102676.25
2022-12-20T04:32:31.816Z,102678.19
2022-12-20T04:37:35.871Z,102674.66
2022-12-20T04:42:38.432Z,102668.50
2022-12-20T04:47:40.660Z,102666.78
2022-12-20T04:53:03.524Z,102672.88
2022-12-20T04:58:07.887Z,102667.56
2022-12-20T05:03:13.192Z,102658.97
2022-12-20T05:08:16.227Z,102669.28
2022-12-20T05:13:18.838Z,102681.75
2022-12-20T05:18:23.254Z,102687.06
2022-12-20T05:23:50.523Z,102686.22
2022-12-20T05:28:57.824Z,102679.13
2022-12-20T05:34:02.019Z,102675.53
2022-12-20T05:39:07.917Z,102667.50
2022-12-20T05:44:13.708Z,102677.25
2022-12-20T05:49:19.234Z,102661.47
2022-12-20T05:54:21.920Z,102654.38
2022-12-20T05:59:32.052Z,102653.50
2022-12-20T06:04:34.805Z,102655.28
2022-12-20T06:09:41.858Z,102660.53
2022-12-20T06:14:48.463Z,102652.50
2022-12-20T06:19:51.494Z,102648.06
2022-12-20T06:24:53.692Z,102642.91
2022-12-20T06:30:00.644Z,102642.03
2022-12-20T06:35:10.082Z,102639.31
2022-12-20T06:40:13.979Z,102635.72
2022-12-20T06:45:16.785Z,102635.72
2022-12-20T06:50:19.413Z,102636.66
2022-12-20T06:55:21.608Z,102639.38
2022-12-20T07:00:24.396Z,102630.50
2022-12-20T07:05:26.595Z,102621.66
2022-12-20T07:10:28.737Z,102619.97
2022-12-20T07:15:30.757Z,102627.78
2022-12-20T07:20:33.380Z,102634.06
2022-12-20T07:25:35.495Z,102637.59
2022-12-20T07:30:37.673Z,102637.59
2022-12-20T07:35:40.611Z,102648.13
2022-12-20T07:40:43.655Z,102641.03
2022-12-20T07:45:45.949Z,102647.28
2022-12-20T07:50:48.260Z,102651.81
2022-12-20T07:55:50.529Z,102651.81
2022-12-20T08:00:52.931Z,102649.94
2022-12-20T08:06:01.070Z,102657.81
2022-12-20T08:11:04.793Z,102652.59
2022-12-20T08:16:07.544Z,102659.84
2022-12-20T08:21:10.866Z,102653.59
2022-12-20T08:26:12.957Z,102657.03
2022-12-20T08:31:15.257Z,102664.91
2022-12-20T08:36:17.414Z,102663.19
2022-12-20T08:41:19.789Z,102661.56
2022-12-20T08:46:21.824Z,102668.56
2022-12-20T08:51:24.250Z,102664.13
2022-12-20T08:56:26.453Z,102664.13
2022-12-20T09:01:30.548Z,102663.19
2022-12-20T09:06:34.806Z,102673.03
2022-12-20T09:11:37.286Z,102670.38
2022-12-20T09:16:39.800Z,102673.03
2022-12-20T09:21:42.879Z,102665.91
2022-12-20T09:26:45.792Z,102667.63
2022-12-20T09:31:51.423Z,102663.19
2022-12-20T09:36:53.844Z,102667.72
2022-12-20T09:41:57.589Z,102648.31
2022-12-20T09:47:10.584Z,102651.72
2022-12-20T09:52:16.111Z,102646.41
2022-12-20T09:57:43.408Z,102638.44
2022-12-20T10:03:09.370Z,102638.63
2022-12-20T10:08:16.058Z,102645.72
2022-12-20T10:13:51.839Z,102638.56
2022-12-20T10:19:08.953Z,102631.34
2022-12-20T10:24:24.914Z,102642.75
2022-12-20T10:29:26.852Z,102629.84
2022-12-20T10:34:34.978Z,102624.41
2022-12-20T10:39:44.898Z,102619.97
2022-12-20T10:44:46.973Z,102611.16
2022-12-20T10:49:49.104Z,102615.50
2022-12-20T10:54:51.235Z,102614.56
2022-12-20T11:00:05.751Z,102605.75
2022-12-20T11:05:10.870Z,102596.78
2022-12-20T11:10:25.347Z,102588.03
2022-12-20T11:15:34.406Z,102591.63
2022-12-20T11:20:48.130Z,102575.63
2022-12-20T11:26:06.153Z,102567.69
2022-12-20T11:31:36.139Z,102551.69
2022-12-20T11:37:04.769Z,102557.94
2022-12-20T11:42:29.576Z,102539.53
2022-12-20T11:47:58.063Z,102534.13
2022-12-20T11:53:08.056Z,102529.59
2022-12-20T11:58:19.952Z,102526.88
2022-12-20T12:03:30.726Z,102506.09
2022-12-20T12:08:50.579Z,102504.94
2022-12-20T12:13:53.229Z,102496.84
2022-12-20T12:18:55.308Z,102498.50
2022-12-20T12:23:57.443Z,102480.75
2022-12-20T12:29:07.160Z,102482.56
2022-12-20T12:34:26.913Z,102472.03
2022-12-20T12:39:29.039Z,102469.38
2022-12-20T12:44:52.259Z,102465.78
2022-12-20T12:49:57.049Z,102453.38
2022-12-20T12:54:59.205Z,102441.91
2022-12-20T13:00:01.357Z,102433.97
2022-12-20T13:05:06.487Z,102424.09
2022-12-20T13:10:08.607Z,102417.00
2022-12-20T13:15:22.646Z,102418.66
2022-12-20T13:20:30.492Z,102414.34
2022-12-20T13:25:33.060Z,102415.28
2022-12-20T13:30:35.252Z,102409.91
2022-12-20T13:36:21.739Z,102410.75
2022-12-20T13:41:48.200Z,102401.88
2022-12-20T13:46:50.729Z,102408.91
2022-12-20T13:52:25.715Z,102402.81
2022-12-20T13:57:48.111Z,102404.59
2022-12-20T14:02:50.404Z,102407.97
2022-12-20T14:08:00.221Z,102395.63
2022-12-20T14:13:02.701Z,102400.84
2022-12-20T14:18:20.434Z,102394.78
2022-12-20T14:23:26.293Z,102389.41
2022-12-20T14:28:35.454Z,102378.78
2022-12-20T14:33:40.374Z,102374.25
2022-12-20T14:38:51.618Z,102374.25
2022-12-20T14:44:00.321Z,102372.50
2022-12-20T14:49:22.353Z,102378.78
2022-12-20T15:00:18.728Z,102376.91
2022-12-20T15:05:39.041Z,102368.03
2022-12-20T15:11:10.877Z,102370.75
2022-12-20T15:16:21.869Z,102370.69
2022-12-20T15:21:40.629Z,102376.91
2022-12-20T15:26:43.316Z,102376.91
2022-12-20T15:31:47.659Z,102373.25
2022-12-20T15:36:49.945Z,102370.53
2022-12-20T15:41:52.868Z,102363.41
2022-12-20T15:46:55.643Z,102360.00
2022-12-20T15:51:58.473Z,102363.50
2022-12-20T15:57:09.578Z,102371.47
2022-12-20T16:02:22.767Z,102373.25
2022-12-20T16:07:25.492Z,102366.22
2022-12-20T16:12:32.765Z,102361.72
2022-12-20T16:17:35.044Z,102371.34
2022-12-20T16:22:37.239Z,102367.78
2022-12-20T16:27:39.361Z,102381.97
2022-12-20T16:32:41.596Z,102373.19
2022-12-20T16:37:43.977Z,102379.31
2022-12-20T16:42:46.415Z,102374.00
2022-12-20T16:47:49.230Z,102365.13
2022-12-20T16:52:52.042Z,102370.34
2022-12-20T16:57:54.904Z,102371.22
2022-12-20T17:02:59.036Z,102365.91
2022-12-20T17:08:01.558Z,102366.91
2022-12-20T17:13:03.809Z,102373.94
2022-12-20T17:18:06.325Z,102365.91
2022-12-20T17:28:32.750Z,102360.59
2022-12-20T17:33:34.953Z,102362.47
2022-12-20T17:38:37.236Z,102358.09
2022-12-20T17:43:39.371Z,102360.66
2022-12-20T17:48:43.931Z,102363.25
2022-12-20T17:53:48.064Z,102373.88
2022-12-20T17:58:50.209Z,102370.53
2022-12-20T18:04:03.568Z,102364.38
2022-12-20T18:09:12.742Z,102368.63
2022-12-20T18:14:16.272Z,102361.47
2022-12-20T18:19:19.296Z,102377.38
2022-12-20T18:24:22.104Z,102384.47
2022-12-20T18:29:24.254Z,102365.97
2022-12-20T18:34:26.467Z,102353.63
2022-12-20T18:39:28.638Z,102342.16
2022-12-20T18:44:36.013Z,102360.66
2022-12-20T18:49:38.448Z,102356.16
2022-12-20T18:54:40.613Z,102352.63
2022-12-20T18:59:42.901Z,102355.38
2022-12-20T19:04:45.115Z,102341.34
2022-12-20T19:09:47.323Z,102338.69
2022-12-20T19:14:49.500Z,102346.47
2022-12-20T19:19:51.820Z,102332.25
2022-12-20T19:24:55.950Z,102334.91
2022-12-20T19:29:58.113Z,102335.84
2022-12-20T19:35:11.309Z,102316.75
2022-12-20T19:40:22.618Z,102318.28
2022-12-20T19:45:24.923Z,102320.00
2022-12-20T19:50:27.176Z,102322.66
2022-12-20T19:55:29.474Z,102318.28
2022-12-20T20:00:32.728Z,102312.03
2022-12-20T20:05:35.152Z,102321.66
2022-12-20T20:10:37.553Z,102325.25
2022-12-20T20:15:39.834Z,102326.16
2022-12-20T20:20:42.046Z,102325.31
2022-12-20T20:25:57.044Z,102327.97
2022-12-20T20:30:59.429Z,102322.50
2022-12-20T20:36:02.088Z,102315.47
2022-12-20T20:41:04.356Z,102330.47
2022-12-20T20:46:09.328Z,102336.78
2022-12-20T20:51:12.289Z,102324.44
2022-12-20T20:56:14.468Z,102316.34
2022-12-20T21:01:16.691Z,102311.97
2022-12-20T21:11:41.259Z,102314.63
2022-12-20T21:16:43.713Z,102323.53
2022-12-20T21:21:46.393Z,102329.75
2022-12-20T21:26:49.318Z,102323.59
2022-12-20T21:31:51.546Z,102335.06
2022-12-20T21:36:53.892Z,102335.84
2022-12-20T21:42:01.652Z,102341.16
2022-12-20T21:47:04.542Z,102348.25
2022-12-20T21:52:07.178Z,102336.03
2022-12-20T21:57:12.072Z,102335.06
2022-12-20T22:02:14.774Z,102322.66
2022-12-20T22:07:16.961Z,102299.56
2022-12-20T22:12:19.200Z,102297.84
2022-12-20T22:17:21.417Z,102292.72
2022-12-20T22:22:25.838Z,102308.53
2022-12-20T22:27:27.918Z,102294.41
2022-12-20T22:32:31.877Z,102302.28
2022-12-20T22:37:34.093Z,102288.09
2022-12-20T22:42:39.010Z,102282.97
2022-12-20T22:47:41.959Z,102283.03
2022-12-20T22:52:44.172Z,102275.06
2022-12-20T22:57:48.056Z,102268.06
2022-12-20T23:02:50.549Z,102255.56
2022-12-20T23:07:52.838Z,102254.59
2022-12-20T23:13:15.316Z,102256.31
2022-12-20T23:18:17.727Z,102264.28
2022-12-20T23:23:19.863Z,102256.44
2022-12-20T23:28:22.209Z,102263.41
2022-12-20T23:33:24.381Z,102267.88
2022-12-20T23:38:26.887Z,102264.28
2022-12-20T23:43:30.549Z,102254.53
2022-12-20T23:48:33.605Z,102252.91
2022-12-20T23:53:36.214Z,102246.81
2022-12-20T23:58:38.719Z,102240.56
